SWA1792 KDEN-KBNA
Flight info
| Callsign | SWA1792 |
|---|---|
| Flight time | N/A |
| Altitude | 37000 |
| Route | EPKEE7 GAETR BUM NMANN RYYMN3 |
| Aircraft | B38M/M-VGDW/C |
Departure
| Time | 2026-05-06 00:27 |
|---|---|
| Airport | Denver International Airport (KDEN) |
Arrival
| Time | N/A |
|---|---|
| Airport | Nashville International Airport (KBNA) |
| Time | Latitude | Longitude | Altitude | Speed | Heading |
|---|---|---|---|---|---|
| 2026-05-05 23:40 | 39.86252 | -104.67255 | 5379 ft | 0 kts | 0° |
| 2026-05-06 00:06 | 39.86245 | -104.67255 | 5379 ft | 4 kts | 1° |
| 2026-05-06 00:06 | 39.86221 | -104.67255 | 5377 ft | 1 kts | 356° |
| 2026-05-06 00:06 | 39.86197 | -104.67254 | 5378 ft | 4 kts | 0° |
| 2026-05-06 00:06 | 39.86177 | -104.67254 | 5377 ft | 0 kts | 357° |
| 2026-05-06 00:10 | 39.86180 | -104.67252 | 5379 ft | 1 kts | 19° |
| 2026-05-06 00:11 | 39.86187 | -104.67237 | 5378 ft | 3 kts | 76° |
| 2026-05-06 00:11 | 39.86175 | -104.67200 | 5376 ft | 7 kts | 117° |
| 2026-05-06 00:11 | 39.86149 | -104.67124 | 5378 ft | 11 kts | 108° |
| 2026-05-06 00:11 | 39.86130 | -104.67006 | 5378 ft | 15 kts | 92° |
| 2026-05-06 00:12 | 39.86129 | -104.66853 | 5380 ft | 18 kts | 90° |
| 2026-05-06 00:12 | 39.86127 | -104.66696 | 5380 ft | 16 kts | 90° |
| 2026-05-06 00:12 | 39.86123 | -104.66594 | 5380 ft | 7 kts | 96° |
| 2026-05-06 00:12 | 39.86135 | -104.66536 | 5378 ft | 7 kts | 52° |
| 2026-05-06 00:13 | 39.86186 | -104.66511 | 5379 ft | 9 kts | 5° |
| 2026-05-06 00:13 | 39.86258 | -104.66508 | 5378 ft | 12 kts | 0° |
| 2026-05-06 00:13 | 39.86347 | -104.66509 | 5378 ft | 13 kts | 360° |
| 2026-05-06 00:13 | 39.86430 | -104.66508 | 5379 ft | 10 kts | 7° |
| 2026-05-06 00:14 | 39.86475 | -104.66553 | 5378 ft | 8 kts | 295° |
| 2026-05-06 00:14 | 39.86479 | -104.66613 | 5379 ft | 5 kts | 280° |
| 2026-05-06 00:14 | 39.86493 | -104.66640 | 5376 ft | 2 kts | 301° |
| 2026-05-06 00:14 | 39.86502 | -104.66657 | 5378 ft | 3 kts | 306° |
| 2026-05-06 00:15 | 39.86530 | -104.66678 | 5377 ft | 7 kts | 340° |
| 2026-05-06 00:15 | 39.86563 | -104.66684 | 5376 ft | 0 kts | 357° |
| 2026-05-06 00:19 | 39.86579 | -104.66683 | 5378 ft | 5 kts | 360° |
| 2026-05-06 00:19 | 39.86627 | -104.66667 | 5376 ft | 9 kts | 45° |
| 2026-05-06 00:20 | 39.86633 | -104.66601 | 5378 ft | 7 kts | 104° |
| 2026-05-06 00:20 | 39.86612 | -104.66539 | 5378 ft | 9 kts | 117° |
| 2026-05-06 00:20 | 39.86593 | -104.66467 | 5378 ft | 7 kts | 96° |
| 2026-05-06 00:20 | 39.86592 | -104.66414 | 5380 ft | 4 kts | 92° |
| 2026-05-06 00:21 | 39.86594 | -104.66380 | 5380 ft | 4 kts | 78° |
| 2026-05-06 00:21 | 39.86625 | -104.66344 | 5377 ft | 8 kts | 17° |
| 2026-05-06 00:21 | 39.86695 | -104.66338 | 5378 ft | 11 kts | 1° |
| 2026-05-06 00:21 | 39.86772 | -104.66336 | 5376 ft | 11 kts | 1° |
| 2026-05-06 00:22 | 39.86848 | -104.66335 | 5374 ft | 11 kts | 360° |
| 2026-05-06 00:22 | 39.86898 | -104.66310 | 5373 ft | 7 kts | 56° |
| 2026-05-06 00:22 | 39.86918 | -104.66260 | 5370 ft | 6 kts | 56° |
| 2026-05-06 00:22 | 39.86964 | -104.66225 | 5373 ft | 11 kts | 14° |
| 2026-05-06 00:23 | 39.87059 | -104.66219 | 5369 ft | 16 kts | 2° |
| 2026-05-06 00:23 | 39.87164 | -104.66217 | 5368 ft | 15 kts | 0° |
| 2026-05-06 00:23 | 39.87265 | -104.66216 | 5365 ft | 14 kts | 0° |
| 2026-05-06 00:23 | 39.87353 | -104.66215 | 5365 ft | 12 kts | 1° |
| 2026-05-06 00:24 | 39.87433 | -104.66214 | 5362 ft | 11 kts | 0° |
| 2026-05-06 00:24 | 39.87500 | -104.66213 | 5362 ft | 8 kts | 1° |
| 2026-05-06 00:24 | 39.87544 | -104.66212 | 5364 ft | 5 kts | 359° |
| 2026-05-06 00:24 | 39.87562 | -104.66212 | 5364 ft | 1 kts | 1° |
| 2026-05-06 00:25 | 39.87588 | -104.66211 | 5363 ft | 7 kts | 1° |
| 2026-05-06 00:25 | 39.87657 | -104.66210 | 5365 ft | 11 kts | 1° |
| 2026-05-06 00:25 | 39.87729 | -104.66198 | 5364 ft | 10 kts | 27° |
| 2026-05-06 00:25 | 39.87754 | -104.66093 | 5361 ft | 15 kts | 89° |
| 2026-05-06 00:26 | 39.87753 | -104.65925 | 5359 ft | 27 kts | 91° |
| 2026-05-06 00:26 | 39.87750 | -104.65361 | 5355 ft | 96 kts | 91° |
| 2026-05-06 00:26 | 39.87742 | -104.64224 | 5338 ft | 154 kts | 90° |
| 2026-05-06 00:26 | 39.87715 | -104.62705 | 5674 ft | 175 kts | 88° |
| 2026-05-06 00:27 | 39.87710 | -104.61086 | 6514 ft | 182 kts | 91° |
| 2026-05-06 00:27 | 39.87644 | -104.59399 | 6969 ft | 196 kts | 103° |
| 2026-05-06 00:27 | 39.87175 | -104.57612 | 7206 ft | 217 kts | 116° |
| 2026-05-06 00:27 | 39.86521 | -104.55768 | 7700 ft | 231 kts | 114° |
| 2026-05-06 00:28 | 39.85846 | -104.53794 | 8126 ft | 247 kts | 113° |
| 2026-05-06 00:28 | 39.85134 | -104.51660 | 8450 ft | 266 kts | 113° |
| 2026-05-06 00:28 | 39.84380 | -104.49401 | 9019 ft | 274 kts | 114° |
| 2026-05-06 00:28 | 39.83613 | -104.47107 | 9735 ft | 279 kts | 114° |
| 2026-05-06 00:29 | 39.82837 | -104.44783 | 10359 ft | 284 kts | 116° |
| 2026-05-06 00:29 | 39.82023 | -104.42353 | 10607 ft | 303 kts | 115° |
| 2026-05-06 00:29 | 39.81152 | -104.39760 | 10804 ft | 323 kts | 116° |
| 2026-05-06 00:29 | 39.80217 | -104.37062 | 11053 ft | 339 kts | 117° |
| 2026-05-06 00:30 | 39.79236 | -104.34234 | 11472 ft | 348 kts | 116° |
| 2026-05-06 00:30 | 39.78235 | -104.31349 | 12106 ft | 353 kts | 116° |
| 2026-05-06 00:30 | 39.77212 | -104.28404 | 12667 ft | 360 kts | 117° |
| 2026-05-06 00:30 | 39.76171 | -104.25409 | 13271 ft | 368 kts | 117° |
| 2026-05-06 00:31 | 39.75109 | -104.22354 | 13869 ft | 374 kts | 117° |
| 2026-05-06 00:31 | 39.74029 | -104.19250 | 14418 ft | 381 kts | 117° |
| 2026-05-06 00:31 | 39.72927 | -104.16086 | 14995 ft | 386 kts | 118° |
| 2026-05-06 00:31 | 39.71801 | -104.12897 | 15595 ft | 391 kts | 118° |
| 2026-05-06 00:32 | 39.70656 | -104.09661 | 16205 ft | 396 kts | 118° |
| 2026-05-06 00:32 | 39.69498 | -104.06387 | 16795 ft | 402 kts | 118° |
| 2026-05-06 00:32 | 39.68324 | -104.03068 | 17406 ft | 407 kts | 118° |
| 2026-05-06 00:32 | 39.67135 | -103.99716 | 17961 ft | 412 kts | 118° |
| 2026-05-06 00:33 | 39.65926 | -103.96313 | 18494 ft | 416 kts | 119° |
| 2026-05-06 00:33 | 39.64581 | -103.92978 | 19002 ft | 418 kts | 122° |
| 2026-05-06 00:33 | 39.63216 | -103.89636 | 19549 ft | 421 kts | 121° |
| 2026-05-06 00:33 | 39.61850 | -103.86268 | 20073 ft | 424 kts | 121° |
| 2026-05-06 00:34 | 39.60474 | -103.82870 | 20604 ft | 427 kts | 121° |
| 2026-05-06 00:34 | 39.59157 | -103.79398 | 21123 ft | 432 kts | 114° |
| 2026-05-06 00:34 | 39.58463 | -103.76984 | 21505 ft | 434 kts | 113° |
| 2026-05-06 00:34 | 39.57413 | -103.73296 | 22017 ft | 438 kts | 113° |
| 2026-05-06 00:35 | 39.56362 | -103.69582 | 22529 ft | 440 kts | 113° |
| 2026-05-06 00:35 | 39.55305 | -103.65844 | 23029 ft | 443 kts | 113° |
| 2026-05-06 00:35 | 39.54241 | -103.62085 | 23515 ft | 446 kts | 113° |
| 2026-05-06 00:35 | 39.53172 | -103.58311 | 23923 ft | 448 kts | 113° |
| 2026-05-06 00:36 | 39.52092 | -103.54504 | 24363 ft | 451 kts | 113° |
| 2026-05-06 00:36 | 39.51004 | -103.50679 | 24798 ft | 453 kts | 113° |
| 2026-05-06 00:36 | 39.49912 | -103.46843 | 25201 ft | 456 kts | 113° |
| 2026-05-06 00:36 | 39.48816 | -103.42997 | 25581 ft | 459 kts | 113° |
| 2026-05-06 00:37 | 39.47707 | -103.39111 | 25997 ft | 461 kts | 113° |
| 2026-05-06 00:37 | 39.46591 | -103.35209 | 26338 ft | 464 kts | 114° |
| 2026-05-06 00:37 | 39.45467 | -103.31283 | 26700 ft | 467 kts | 114° |
| 2026-05-06 00:37 | 39.44333 | -103.27329 | 27102 ft | 469 kts | 114° |
| 2026-05-06 00:38 | 39.43209 | -103.23411 | 27468 ft | 472 kts | 114° |
| 2026-05-06 00:38 | 39.42061 | -103.19421 | 27838 ft | 474 kts | 114° |
| 2026-05-06 00:38 | 39.40912 | -103.15432 | 28200 ft | 477 kts | 114° |
| 2026-05-06 00:38 | 39.39751 | -103.11410 | 28554 ft | 479 kts | 114° |
| 2026-05-06 00:39 | 39.38582 | -103.07359 | 28855 ft | 482 kts | 114° |
| 2026-05-06 00:39 | 39.37405 | -103.03293 | 29210 ft | 484 kts | 115° |
| 2026-05-06 00:39 | 39.36221 | -102.99206 | 29547 ft | 487 kts | 115° |
| 2026-05-06 00:39 | 39.35084 | -102.95059 | 29864 ft | 492 kts | 108° |
| 2026-05-06 00:40 | 39.34492 | -102.90679 | 30221 ft | 496 kts | 101° |
| 2026-05-06 00:40 | 39.33953 | -102.86260 | 30392 ft | 501 kts | 102° |
| 2026-05-06 00:40 | 39.33402 | -102.81823 | 30659 ft | 503 kts | 102° |
| 2026-05-06 00:40 | 39.32853 | -102.77349 | 30883 ft | 506 kts | 102° |
| 2026-05-06 00:41 | 39.32299 | -102.72833 | 31018 ft | 511 kts | 103° |
| 2026-05-06 00:41 | 39.31168 | -102.63663 | 31401 ft | 519 kts | 103° |
| 2026-05-06 00:41 | 39.30596 | -102.59048 | 31567 ft | 524 kts | 103° |
| 2026-05-06 00:42 | 39.30019 | -102.54398 | 31819 ft | 526 kts | 103° |
| 2026-05-06 00:42 | 39.29435 | -102.49714 | 32014 ft | 529 kts | 103° |
| 2026-05-06 00:42 | 39.28845 | -102.44997 | 32249 ft | 532 kts | 103° |
| 2026-05-06 00:42 | 39.28251 | -102.40273 | 32463 ft | 535 kts | 104° |
| 2026-05-06 00:43 | 39.27653 | -102.35526 | 32631 ft | 539 kts | 104° |
| 2026-05-06 00:43 | 39.27048 | -102.30737 | 32900 ft | 540 kts | 104° |
| 2026-05-06 00:43 | 39.26440 | -102.25948 | 33162 ft | 542 kts | 104° |
| 2026-05-06 00:43 | 39.25831 | -102.21162 | 33418 ft | 544 kts | 104° |
| 2026-05-06 00:44 | 39.25217 | -102.16351 | 33681 ft | 545 kts | 105° |
| 2026-05-06 00:44 | 39.24597 | -102.11513 | 33932 ft | 546 kts | 105° |
| 2026-05-06 00:44 | 39.23976 | -102.06677 | 34170 ft | 548 kts | 105° |
| 2026-05-06 00:44 | 39.23348 | -102.01815 | 34423 ft | 548 kts | 105° |
| 2026-05-06 00:45 | 39.22721 | -101.96966 | 34611 ft | 550 kts | 105° |
| 2026-05-06 00:45 | 39.22089 | -101.92100 | 34881 ft | 550 kts | 105° |
| 2026-05-06 00:45 | 39.21460 | -101.87272 | 35160 ft | 549 kts | 105° |
| 2026-05-06 00:45 | 39.20824 | -101.82410 | 35448 ft | 548 kts | 105° |
| 2026-05-06 00:46 | 39.20190 | -101.77574 | 35666 ft | 548 kts | 106° |
| 2026-05-06 00:46 | 39.18909 | -101.67861 | 35901 ft | 554 kts | 106° |
| 2026-05-06 00:46 | 39.18260 | -101.62966 | 36093 ft | 555 kts | 107° |
| 2026-05-06 00:47 | 39.17606 | -101.58047 | 36293 ft | 556 kts | 107° |
| 2026-05-06 00:47 | 39.16952 | -101.53146 | 36563 ft | 555 kts | 107° |
| 2026-05-06 00:47 | 39.16297 | -101.48251 | 36830 ft | 554 kts | 107° |
| 2026-05-06 00:47 | 39.15641 | -101.43368 | 37034 ft | 554 kts | 107° |